Impacts TAF Board
For situational awareness. Not to be used for flight planning purposes.
IDs:

KBWI - Baltimore-Washington, MD, US

Issued at 1743 UTC 20 Sep 2018
Updated at 2020 UTC 20 Sep 2018
Potential Impact None Slight Moderate High
Time<<21/21Z 21/22Z 21/23Z 22/00Z 22/01Z 22/02Z 22/03Z 22/04Z 22/05Z 22/06Z 22/07Z 22/08Z 22/09Z
Type PRVL PRVL PRVL
VIS >6 >6 >6
CIG -- -- --
Cover SCT SCT SCT
FltCat VFR VFR VFR
WX -- -- --
WDir 180 180 180
WSpd 10 10 10
WGst -- -- --
Raw TAF
KBWI 201743Z 2018/2124 12007KT P6SM SCT025 BKN050
  FM210600 14004KT P6SM BKN030
  FM211600 17008KT P6SM BKN025
  FM212100 18010KT P6SM SCT040 SCT110


METAR Board
Radar Display
Forecast Discussion
For situational awareness. Not to be used for flight planning purposes.